createdAt,value
2018-09-04T00:00:08.572Z,17.2
2018-09-04T00:01:09.934Z,17.2
2018-09-04T00:02:11.306Z,17.2
2018-09-04T00:03:12.647Z,17.2
2018-09-04T00:04:14.948Z,17.2
2018-09-04T00:05:15.328Z,17.2
2018-09-04T00:06:16.691Z,17.1
2018-09-04T00:07:18.066Z,17.2
2018-09-04T00:08:19.417Z,17.1
2018-09-04T00:09:20.767Z,17.1
2018-09-04T00:10:22.137Z,17.0
2018-09-04T00:11:23.502Z,17.0
2018-09-04T00:12:24.862Z,17.0
2018-09-04T00:13:26.220Z,17.1
2018-09-04T00:14:27.583Z,17.0
2018-09-04T00:15:28.957Z,17.0
2018-09-04T00:16:30.311Z,17.0
2018-09-04T00:17:31.679Z,16.9
2018-09-04T00:18:33.047Z,16.9
2018-09-04T00:19:34.399Z,16.9
2018-09-04T00:20:35.756Z,16.9
2018-09-04T00:21:37.118Z,16.9
2018-09-04T00:22:38.471Z,16.8
2018-09-04T00:23:39.830Z,16.9
2018-09-04T00:24:41.187Z,16.9
2018-09-04T00:25:42.557Z,16.8
2018-09-04T00:26:43.912Z,16.8
2018-09-04T00:27:45.270Z,16.8
2018-09-04T00:28:46.623Z,16.9
2018-09-04T00:29:47.983Z,16.8
2018-09-04T00:30:49.349Z,16.8
2018-09-04T00:31:50.696Z,16.8
2018-09-04T00:32:52.051Z,16.8
2018-09-04T00:33:53.407Z,16.7
2018-09-04T00:34:54.762Z,16.7
2018-09-04T00:35:56.121Z,16.7
2018-09-04T00:36:57.481Z,16.7
2018-09-04T00:37:58.834Z,16.8
2018-09-04T00:39:00.203Z,16.8
2018-09-04T00:40:01.554Z,16.7
2018-09-04T00:41:02.911Z,16.6
2018-09-04T00:42:04.286Z,16.6
2018-09-04T00:43:05.651Z,16.6
2018-09-04T00:44:07.002Z,16.6
2018-09-04T00:45:08.351Z,16.6
2018-09-04T00:46:09.714Z,16.6
2018-09-04T00:47:11.077Z,16.6
2018-09-04T00:48:12.452Z,16.6
2018-09-04T00:49:13.816Z,16.5
2018-09-04T00:50:15.178Z,16.6
2018-09-04T00:51:16.537Z,16.5
2018-09-04T00:52:17.893Z,16.5
2018-09-04T00:53:19.255Z,16.5
2018-09-04T00:54:20.608Z,16.5
2018-09-04T00:55:21.976Z,16.5
2018-09-04T00:56:23.333Z,16.5
2018-09-04T00:57:24.698Z,16.5
2018-09-04T00:58:26.063Z,16.5
2018-09-04T00:59:27.427Z,16.5
2018-09-04T01:00:28.778Z,16.5
2018-09-04T01:01:30.128Z,16.5
2018-09-04T01:02:31.496Z,16.5
2018-09-04T01:03:32.848Z,16.5
2018-09-04T01:04:34.209Z,16.5
2018-09-04T01:05:35.571Z,16.4
2018-09-04T01:06:36.926Z,16.5
2018-09-04T01:07:38.288Z,16.4
2018-09-04T01:08:39.648Z,16.4
2018-09-04T01:09:41.002Z,16.4
2018-09-04T01:10:42.364Z,16.4
2018-09-04T01:11:43.723Z,16.4
2018-09-04T01:12:45.083Z,16.3
2018-09-04T01:13:46.437Z,16.3
2018-09-04T01:14:47.782Z,16.4
2018-09-04T01:15:49.140Z,16.4
2018-09-04T01:16:50.504Z,16.4
2018-09-04T01:17:51.864Z,16.4
2018-09-04T01:18:53.232Z,16.4
2018-09-04T01:19:54.587Z,16.4
2018-09-04T01:20:55.952Z,16.4
2018-09-04T01:21:57.312Z,16.4
2018-09-04T01:22:58.668Z,16.4
2018-09-04T01:24:00.043Z,16.4
2018-09-04T01:25:01.401Z,16.4
2018-09-04T01:26:02.743Z,16.5
2018-09-04T01:27:04.109Z,16.5
2018-09-04T01:28:05.460Z,16.4
2018-09-04T01:29:06.828Z,16.5
2018-09-04T01:30:08.197Z,16.5
2018-09-04T01:31:09.556Z,16.5
2018-09-04T01:32:10.913Z,16.5
2018-09-04T01:33:12.268Z,16.5
2018-09-04T01:34:13.633Z,16.5
2018-09-04T01:35:14.997Z,16.6
2018-09-04T01:36:16.348Z,16.6
2018-09-04T01:37:17.723Z,16.6
2018-09-04T01:38:19.068Z,16.6
2018-09-04T01:39:20.432Z,16.6
2018-09-04T01:40:21.802Z,16.6
2018-09-04T01:41:23.159Z,16.7
2018-09-04T01:42:24.508Z,16.6
2018-09-04T01:43:25.878Z,16.8
2018-09-04T01:44:27.228Z,16.8
2018-09-04T01:45:28.594Z,16.8
2018-09-04T01:46:29.948Z,16.7
2018-09-04T01:47:31.309Z,16.7
2018-09-04T01:48:32.681Z,16.7
2018-09-04T01:49:34.028Z,16.7
2018-09-04T01:50:35.389Z,16.6
2018-09-04T01:51:36.749Z,16.7
2018-09-04T01:52:38.095Z,16.7
2018-09-04T01:53:39.449Z,16.8
2018-09-04T01:54:40.811Z,16.8
2018-09-04T01:55:42.172Z,16.8
2018-09-04T01:56:43.527Z,16.8
2018-09-04T01:57:44.879Z,16.9
2018-09-04T01:58:46.239Z,16.8
2018-09-04T01:59:47.604Z,16.8
2018-09-04T02:00:48.964Z,16.7
2018-09-04T02:01:50.327Z,16.8
2018-09-04T02:02:51.697Z,16.8
2018-09-04T02:03:53.043Z,16.8
2018-09-04T02:04:54.413Z,16.8
2018-09-04T02:05:55.776Z,16.9
2018-09-04T02:06:57.129Z,16.9
2018-09-04T02:07:58.488Z,16.9
2018-09-04T02:08:59.854Z,17.0
2018-09-04T02:10:01.204Z,16.9
2018-09-04T02:11:02.559Z,16.9
2018-09-04T02:12:03.935Z,16.9
2018-09-04T02:13:05.268Z,16.9
2018-09-04T02:14:06.630Z,16.8
2018-09-04T02:15:07.989Z,16.9
2018-09-04T02:16:09.352Z,17.0
2018-09-04T02:17:10.934Z,17.0
2018-09-04T02:18:12.494Z,16.9
2018-09-04T02:19:13.823Z,17.0
2018-09-04T02:20:15.192Z,17.0
2018-09-04T02:21:16.565Z,17.1
2018-09-04T02:22:17.916Z,17.0
2018-09-04T02:23:19.270Z,17.1
2018-09-04T02:24:20.635Z,17.0
2018-09-04T02:25:22.000Z,17.1
2018-09-04T02:26:23.354Z,17.1
2018-09-04T02:27:24.710Z,17.1
2018-09-04T02:28:26.077Z,17.1
2018-09-04T02:29:27.434Z,17.1
2018-09-04T02:30:28.797Z,17.2
2018-09-04T02:31:30.152Z,17.1
2018-09-04T02:32:31.518Z,17.1
2018-09-04T02:33:32.884Z,17.2
2018-09-04T02:34:34.241Z,17.1
2018-09-04T02:35:35.591Z,17.2
2018-09-04T02:36:36.948Z,17.2
2018-09-04T02:37:38.320Z,17.2
2018-09-04T02:38:39.676Z,17.1
2018-09-04T02:39:41.029Z,17.1
2018-09-04T02:40:42.389Z,17.1
2018-09-04T02:41:43.755Z,17.1
2018-09-04T02:42:45.118Z,17.1
2018-09-04T02:43:46.469Z,17.1
2018-09-04T02:44:47.828Z,17.1
2018-09-04T02:45:49.189Z,17.1
2018-09-04T02:46:50.548Z,17.0
2018-09-04T02:47:51.913Z,17.0
2018-09-04T02:48:53.274Z,17.0
2018-09-04T02:49:54.633Z,17.0
2018-09-04T02:50:55.989Z,16.9
2018-09-04T02:51:57.355Z,16.9
2018-09-04T02:52:58.714Z,17.0
2018-09-04T02:54:00.080Z,17.0
2018-09-04T02:55:01.441Z,16.9
2018-09-04T02:56:02.800Z,17.0
2018-09-04T02:57:04.159Z,16.9
2018-09-04T02:58:05.511Z,16.9
2018-09-04T02:59:06.872Z,16.9
2018-09-04T03:00:08.230Z,16.8
2018-09-04T03:01:09.601Z,17.0
2018-09-04T03:02:10.950Z,17.0
2018-09-04T03:03:12.304Z,16.9
2018-09-04T03:04:13.665Z,16.9
2018-09-04T03:05:15.015Z,17.0
2018-09-04T03:06:16.370Z,17.0
2018-09-04T03:07:17.736Z,16.9
2018-09-04T03:08:19.086Z,16.9
2018-09-04T03:09:20.451Z,16.9
2018-09-04T03:10:21.808Z,16.9
2018-09-04T03:11:23.171Z,16.9
2018-09-04T03:12:24.534Z,16.9
2018-09-04T03:13:25.968Z,17.0
2018-09-04T03:14:27.220Z,17.0
2018-09-04T03:15:28.583Z,16.9
2018-09-04T03:16:29.944Z,16.9
2018-09-04T03:17:31.301Z,16.9
2018-09-04T03:18:32.666Z,17.0
2018-09-04T03:19:34.014Z,16.8
2018-09-04T03:20:35.384Z,16.9
2018-09-04T03:21:36.735Z,16.9
2018-09-04T03:22:38.086Z,16.8
2018-09-04T03:23:39.447Z,16.8
2018-09-04T03:24:40.805Z,16.9
2018-09-04T03:25:42.174Z,16.9
2018-09-04T03:26:43.526Z,16.9
2018-09-04T03:27:44.884Z,16.8
2018-09-04T03:28:46.249Z,16.8
2018-09-04T03:29:47.606Z,16.8
2018-09-04T03:30:48.963Z,16.8
2018-09-04T03:31:50.324Z,16.7
2018-09-04T03:32:51.680Z,16.8
2018-09-04T03:33:53.044Z,16.7
2018-09-04T03:34:54.410Z,16.7
2018-09-04T03:35:55.766Z,16.7
2018-09-04T03:36:57.120Z,16.7
2018-09-04T03:37:58.491Z,16.7
2018-09-04T03:38:59.845Z,16.7
2018-09-04T03:40:01.202Z,16.6
2018-09-04T03:41:02.564Z,16.8
2018-09-04T03:42:03.916Z,16.7
2018-09-04T03:43:05.279Z,16.7
2018-09-04T03:44:06.629Z,16.8
2018-09-04T03:45:07.989Z,16.7
2018-09-04T03:46:09.351Z,16.8
2018-09-04T03:47:10.709Z,16.7
2018-09-04T03:48:12.060Z,16.7
2018-09-04T03:49:13.445Z,16.6
2018-09-04T03:50:14.802Z,16.6
2018-09-04T03:51:16.165Z,16.6
2018-09-04T03:52:17.564Z,16.6
2018-09-04T03:53:18.851Z,16.5
2018-09-04T03:54:20.215Z,16.6
2018-09-04T03:55:21.577Z,16.5
2018-09-04T03:56:22.920Z,16.6
2018-09-04T03:57:24.300Z,16.6
2018-09-04T03:58:25.640Z,16.5
2018-09-04T03:59:27.000Z,16.5
2018-09-04T04:00:28.354Z,16.5
2018-09-04T04:01:29.735Z,16.5
2018-09-04T04:02:31.079Z,16.5
2018-09-04T04:03:32.439Z,16.6
2018-09-04T04:04:33.789Z,16.5
2018-09-04T04:05:35.144Z,16.5
2018-09-04T04:06:36.500Z,16.5
2018-09-04T04:07:37.854Z,16.5
2018-09-04T04:08:39.215Z,16.6
2018-09-04T04:09:40.577Z,16.5
2018-09-04T04:10:41.941Z,16.5
2018-09-04T04:11:43.305Z,16.6
2018-09-04T04:12:44.664Z,16.7
2018-09-04T04:13:46.025Z,16.6
2018-09-04T04:14:47.387Z,16.6
2018-09-04T04:15:48.749Z,16.6
2018-09-04T04:16:50.109Z,16.6
2018-09-04T04:17:51.472Z,16.7
2018-09-04T04:18:52.842Z,16.7
2018-09-04T04:19:54.200Z,16.7
2018-09-04T04:20:55.554Z,16.7
2018-09-04T04:21:56.909Z,16.7
2018-09-04T04:22:58.275Z,16.7
2018-09-04T04:23:59.691Z,16.7
2018-09-04T04:25:00.995Z,16.7
2018-09-04T04:26:02.359Z,16.6
2018-09-04T04:27:03.719Z,16.7
2018-09-04T04:28:05.077Z,16.7
2018-09-04T04:29:06.460Z,16.7
2018-09-04T04:30:07.821Z,16.7
2018-09-04T04:31:09.176Z,16.8
2018-09-04T04:32:10.531Z,16.8
2018-09-04T04:33:11.915Z,16.7
2018-09-04T04:34:13.226Z,16.8
2018-09-04T04:35:14.600Z,16.7
2018-09-04T04:36:15.950Z,16.7
2018-09-04T04:37:17.300Z,16.8
2018-09-04T04:38:18.670Z,16.7
2018-09-04T04:39:20.042Z,16.8
2018-09-04T04:40:21.409Z,16.8
2018-09-04T04:41:22.765Z,16.8
2018-09-04T04:42:24.126Z,16.8
2018-09-04T04:43:25.482Z,16.8
2018-09-04T04:44:26.844Z,16.8
2018-09-04T04:45:28.214Z,16.8
2018-09-04T04:46:29.577Z,16.8
2018-09-04T04:47:30.953Z,16.8
2018-09-04T04:48:32.310Z,16.9
2018-09-04T04:49:33.674Z,16.8
2018-09-04T04:50:35.041Z,16.9
2018-09-04T04:51:36.394Z,16.9
2018-09-04T04:52:37.751Z,16.8
2018-09-04T04:53:39.115Z,16.9
2018-09-04T04:54:40.483Z,16.9
2018-09-04T04:55:41.839Z,16.9
2018-09-04T04:56:43.206Z,17.0
2018-09-04T04:57:44.572Z,16.8
2018-09-04T04:58:45.932Z,16.8
2018-09-04T04:59:47.302Z,16.9
2018-09-04T05:00:48.665Z,16.9
2018-09-04T05:01:50.025Z,16.9
2018-09-04T05:02:51.395Z,16.9
2018-09-04T05:03:52.766Z,16.9
2018-09-04T05:04:54.137Z,16.9
2018-09-04T05:05:55.496Z,16.8
2018-09-04T05:06:56.855Z,16.9
2018-09-04T05:07:58.230Z,17.0
2018-09-04T05:09:19.950Z,16.9
2018-09-04T05:10:21.327Z,17.0
2018-09-04T05:11:22.689Z,17.0
2018-09-04T05:12:24.044Z,17.0
2018-09-04T05:13:25.409Z,17.0
2018-09-04T05:14:26.775Z,17.0
2018-09-04T05:15:28.137Z,17.0
2018-09-04T05:16:29.501Z,17.0
2018-09-04T05:17:30.865Z,17.1
2018-09-04T05:18:32.227Z,17.0
2018-09-04T05:19:33.596Z,17.0
2018-09-04T05:20:34.980Z,17.0
2018-09-04T05:21:36.325Z,17.0
2018-09-04T05:22:37.773Z,17.1
2018-09-04T05:23:39.036Z,17.1
2018-09-04T05:24:40.397Z,17.1
2018-09-04T05:25:41.758Z,17.1
2018-09-04T05:26:43.125Z,17.1
2018-09-04T05:27:44.493Z,17.2
2018-09-04T05:28:45.852Z,17.1
2018-09-04T05:29:47.222Z,17.1
2018-09-04T05:30:48.577Z,17.1
2018-09-04T05:31:49.964Z,17.1
2018-09-04T05:32:51.319Z,17.1
2018-09-04T05:33:52.693Z,17.2
2018-09-04T05:34:54.051Z,17.2
2018-09-04T05:35:55.411Z,17.2
2018-09-04T05:36:56.781Z,17.1
2018-09-04T05:37:58.147Z,17.1
2018-09-04T05:38:59.519Z,17.1
2018-09-04T05:40:00.881Z,17.1
2018-09-04T05:41:02.247Z,17.2
2018-09-04T05:42:03.612Z,17.2
2018-09-04T05:43:04.986Z,17.2
2018-09-04T05:44:06.343Z,17.2
2018-09-04T05:45:07.712Z,17.2
2018-09-04T05:46:09.077Z,17.2
2018-09-04T05:47:10.436Z,17.2
2018-09-04T05:48:11.796Z,17.1
2018-09-04T05:49:13.162Z,17.2
2018-09-04T05:50:14.534Z,17.1
2018-09-04T05:51:15.900Z,17.2
2018-09-04T05:52:17.265Z,17.2
2018-09-04T05:53:18.716Z,17.2
2018-09-04T05:54:20.097Z,17.4
2018-09-04T05:55:21.635Z,17.4
2018-09-04T05:56:22.798Z,17.2
2018-09-04T05:57:24.163Z,17.2
2018-09-04T05:58:25.529Z,17.3
2018-09-04T05:59:26.893Z,17.3
2018-09-04T06:00:28.255Z,17.3
2018-09-04T06:01:29.620Z,17.3
2018-09-04T06:02:30.983Z,17.3
2018-09-04T06:03:32.351Z,17.3
2018-09-04T06:04:33.715Z,17.3
2018-09-04T06:05:35.081Z,17.3
2018-09-04T06:06:36.452Z,17.3
2018-09-04T06:07:37.851Z,17.3
2018-09-04T06:08:39.211Z,17.3
2018-09-04T06:09:40.571Z,17.3
2018-09-04T06:10:41.935Z,17.3
2018-09-04T06:11:43.293Z,17.4
2018-09-04T06:12:44.665Z,17.4
2018-09-04T06:13:46.054Z,17.4
2018-09-04T06:14:47.356Z,17.3
2018-09-04T06:15:48.719Z,17.4
2018-09-04T06:16:50.094Z,17.3
2018-09-04T06:17:51.449Z,17.3
2018-09-04T06:18:52.824Z,17.2
2018-09-04T06:19:54.243Z,17.2
2018-09-04T06:20:55.537Z,17.2
2018-09-04T06:21:56.893Z,17.2
2018-09-04T06:22:58.259Z,17.3
2018-09-04T06:23:59.615Z,17.3
2018-09-04T06:25:00.978Z,17.3
2018-09-04T06:26:02.365Z,17.3
2018-09-04T06:27:03.728Z,17.4
2018-09-04T06:28:05.095Z,17.4
2018-09-04T06:29:06.454Z,17.4
2018-09-04T06:30:07.823Z,17.3
2018-09-04T06:31:09.197Z,17.4
2018-09-04T06:32:10.552Z,17.4
2018-09-04T06:33:11.918Z,17.3
2018-09-04T06:34:13.374Z,17.2
2018-09-04T06:35:14.778Z,17.2
2018-09-04T06:36:16.135Z,17.2
2018-09-04T06:37:17.519Z,17.2
2018-09-04T06:38:18.893Z,17.2
2018-09-04T06:39:20.274Z,17.1
2018-09-04T06:40:21.647Z,17.2
2018-09-04T06:41:23.027Z,17.1
2018-09-04T06:42:24.399Z,17.1
2018-09-04T06:43:25.759Z,17.2
2018-09-04T06:44:27.138Z,17.2
2018-09-04T06:45:28.492Z,17.1
2018-09-04T06:46:29.946Z,17.1
2018-09-04T06:47:31.253Z,17.1
2018-09-04T06:48:32.622Z,17.2
2018-09-04T06:49:33.996Z,17.2
2018-09-04T06:50:35.358Z,17.1
2018-09-04T06:51:36.745Z,17.1
2018-09-04T06:52:38.114Z,17.3
2018-09-04T06:53:39.484Z,17.2
2018-09-04T06:54:40.934Z,17.1
2018-09-04T06:55:42.179Z,17.1
2018-09-04T06:56:43.556Z,17.2
2018-09-04T06:57:44.943Z,17.2
2018-09-04T06:58:46.301Z,17.2
2018-09-04T06:59:47.675Z,17.2
2018-09-04T07:00:49.071Z,17.2
2018-09-04T07:01:50.472Z,17.2
2018-09-04T07:02:51.851Z,17.2
2018-09-04T07:03:53.251Z,17.3
2018-09-04T07:04:54.642Z,17.2
2018-09-04T07:05:56.066Z,17.3
2018-09-04T07:06:57.472Z,17.3
2018-09-04T07:07:58.842Z,17.3
2018-09-04T07:09:00.198Z,17.2
2018-09-04T07:10:01.573Z,17.3
2018-09-04T07:11:02.939Z,17.2
2018-09-04T07:12:04.316Z,17.2
2018-09-04T07:13:05.673Z,17.2
2018-09-04T07:14:07.041Z,17.2
2018-09-04T07:15:08.422Z,17.2
2018-09-04T07:16:09.793Z,17.2
2018-09-04T07:17:11.238Z,17.3
2018-09-04T07:18:12.494Z,17.1
2018-09-04T07:19:13.857Z,17.3
2018-09-04T07:20:15.218Z,17.3
2018-09-04T07:21:16.583Z,17.2
2018-09-04T07:22:17.946Z,17.2
2018-09-04T07:23:19.313Z,17.2
2018-09-04T07:24:20.685Z,17.2
2018-09-04T07:25:21.998Z,17.2
2018-09-04T07:26:23.371Z,17.2
2018-09-04T07:27:24.728Z,17.3
2018-09-04T07:28:26.103Z,17.2
2018-09-04T07:29:27.467Z,17.2
2018-09-04T07:30:28.833Z,17.2
2018-09-04T07:31:30.204Z,17.3
2018-09-04T07:32:31.561Z,17.2
2018-09-04T07:33:32.924Z,17.2
2018-09-04T07:34:34.296Z,17.3
2018-09-04T07:35:35.672Z,17.3
2018-09-04T07:36:37.039Z,17.4
2018-09-04T07:37:38.413Z,17.3
2018-09-04T07:38:39.773Z,17.3
2018-09-04T07:39:41.147Z,17.4
2018-09-04T07:40:42.515Z,17.4
2018-09-04T07:41:43.930Z,17.4
2018-09-04T07:42:45.277Z,17.3
2018-09-04T07:43:46.642Z,17.4
2018-09-04T07:44:48.007Z,17.3
2018-09-04T07:45:49.380Z,17.3
2018-09-04T07:46:50.746Z,17.3
2018-09-04T07:47:52.140Z,17.2
2018-09-04T07:48:53.489Z,17.4
2018-09-04T07:49:54.862Z,17.4
2018-09-04T07:50:56.239Z,17.5
2018-09-04T07:51:57.599Z,17.5
2018-09-04T07:52:58.970Z,17.5
2018-09-04T07:54:00.345Z,17.6
2018-09-04T07:55:01.699Z,17.6
2018-09-04T07:56:03.068Z,17.7
2018-09-04T07:57:04.443Z,17.8
2018-09-04T07:58:05.803Z,17.8
2018-09-04T07:59:07.173Z,17.8
2018-09-04T08:00:08.546Z,17.7
2018-09-04T08:01:09.931Z,17.7
2018-09-04T08:02:11.300Z,17.8
2018-09-04T08:03:12.665Z,17.8
2018-09-04T08:04:14.039Z,17.9
2018-09-04T08:05:15.410Z,17.9
2018-09-04T08:06:16.785Z,17.9
2018-09-04T08:07:18.157Z,18.0
2018-09-04T08:08:19.543Z,18.0
2018-09-04T08:09:20.940Z,18.0
2018-09-04T08:10:22.309Z,18.0
2018-09-04T08:11:23.677Z,18.0
2018-09-04T08:12:25.070Z,18.0
2018-09-04T08:13:26.448Z,18.1
2018-09-04T08:14:27.812Z,18.1
2018-09-04T08:15:29.177Z,18.2
2018-09-04T08:16:30.669Z,18.2
2018-09-04T08:17:31.893Z,18.5
2018-09-04T08:18:33.249Z,18.4
2018-09-04T08:19:34.625Z,18.4
2018-09-04T08:20:36.060Z,18.3
2018-09-04T08:21:37.393Z,18.4
2018-09-04T08:22:38.748Z,18.4
2018-09-04T08:23:40.123Z,18.4
2018-09-04T08:24:41.488Z,18.6
2018-09-04T08:25:42.852Z,18.7
2018-09-04T08:26:44.228Z,18.7
2018-09-04T08:27:45.608Z,18.8
2018-09-04T08:28:46.971Z,18.9
2018-09-04T08:29:48.546Z,19.0
2018-09-04T08:30:49.925Z,19.0
2018-09-04T08:31:51.297Z,19.2
2018-09-04T08:32:52.792Z,19.3
2018-09-04T08:33:54.050Z,19.4
2018-09-04T08:34:55.419Z,19.4
2018-09-04T08:35:56.817Z,19.4
2018-09-04T08:36:58.192Z,19.4
2018-09-04T08:37:59.573Z,19.5
2018-09-04T08:39:00.950Z,19.4
2018-09-04T08:40:02.407Z,19.4
2018-09-04T08:41:03.715Z,19.4
2018-09-04T08:42:05.085Z,19.5
2018-09-04T08:43:06.506Z,19.6
2018-09-04T08:44:07.843Z,19.7
2018-09-04T08:45:09.875Z,19.7
2018-09-04T08:46:11.277Z,19.7
2018-09-04T08:47:12.729Z,19.8
2018-09-04T08:48:14.024Z,19.8
2018-09-04T08:49:15.457Z,20.0
2018-09-04T08:50:16.843Z,20.1
2018-09-04T08:51:18.219Z,20.3
2018-09-04T08:52:19.599Z,20.2
2018-09-04T08:53:21.032Z,20.4
2018-09-04T08:54:22.363Z,20.4
2018-09-04T08:55:23.796Z,20.4
2018-09-04T08:56:25.132Z,20.4
2018-09-04T08:57:26.502Z,20.4
2018-09-04T08:58:27.891Z,20.6
2018-09-04T08:59:29.269Z,20.6
2018-09-04T09:00:30.637Z,20.6
2018-09-04T09:01:32.023Z,20.7
2018-09-04T09:02:33.393Z,20.7
2018-09-04T09:03:34.777Z,20.6
2018-09-04T09:04:36.143Z,20.7
2018-09-04T09:05:37.583Z,20.6
2018-09-04T09:06:38.854Z,20.6
2018-09-04T09:07:40.231Z,20.6
2018-09-04T09:08:41.614Z,20.6
2018-09-04T09:09:43.021Z,20.5
2018-09-04T09:10:44.393Z,20.5
2018-09-04T09:11:45.765Z,20.6
2018-09-04T09:12:47.144Z,20.7
2018-09-04T09:13:48.527Z,20.7
2018-09-04T09:14:49.908Z,20.9
2018-09-04T09:15:51.298Z,20.9
2018-09-04T09:16:52.717Z,21.0
2018-09-04T09:17:54.050Z,20.9
2018-09-04T09:18:55.437Z,20.9
2018-09-04T09:19:56.827Z,20.9
2018-09-04T09:20:58.203Z,21.0
2018-09-04T09:21:59.576Z,21.1
2018-09-04T09:23:00.965Z,21.0
2018-09-04T09:24:02.331Z,21.0
2018-09-04T09:25:03.715Z,21.0
2018-09-04T09:26:05.094Z,21.1
2018-09-04T09:27:06.486Z,21.3
2018-09-04T09:28:07.853Z,21.4
2018-09-04T09:29:09.236Z,21.5
2018-09-04T09:30:10.609Z,21.8
2018-09-04T09:31:11.984Z,21.9
2018-09-04T09:32:13.372Z,21.9
2018-09-04T09:33:14.758Z,22.0
2018-09-04T09:34:17.599Z,21.9
2018-09-04T09:35:19.062Z,22.0
2018-09-04T09:36:20.366Z,22.0
2018-09-04T09:37:21.771Z,21.9
2018-09-04T09:38:23.153Z,22.0
2018-09-04T09:39:24.534Z,22.1
2018-09-04T09:40:25.914Z,22.2
2018-09-04T09:41:27.393Z,22.5
2018-09-04T09:42:28.770Z,22.7
2018-09-04T09:43:30.164Z,22.9
2018-09-04T09:44:31.545Z,22.9
2018-09-04T09:45:32.925Z,22.9
2018-09-04T09:46:34.319Z,22.9
2018-09-04T09:47:35.745Z,22.8
2018-09-04T09:48:37.126Z,22.6
2018-09-04T09:49:38.508Z,22.4
2018-09-04T09:50:39.906Z,22.4
2018-09-04T09:51:41.226Z,22.2
2018-09-04T09:52:42.644Z,22.2
2018-09-04T09:53:44.032Z,22.2
2018-09-04T09:54:45.385Z,22.3
2018-09-04T09:55:46.784Z,22.4
2018-09-04T09:56:48.172Z,22.4
2018-09-04T09:57:49.592Z,22.5
2018-09-04T09:58:50.920Z,22.5
2018-09-04T09:59:52.323Z,22.6
2018-09-04T10:00:53.778Z,22.6
2018-09-04T10:01:55.036Z,22.6
2018-09-04T10:02:56.428Z,22.6
2018-09-04T10:03:57.871Z,22.7
2018-09-04T10:04:59.142Z,22.7
2018-09-04T10:06:00.524Z,22.6
2018-09-04T10:07:01.912Z,22.5
2018-09-04T10:08:03.308Z,22.4
2018-09-04T10:09:04.689Z,22.5
2018-09-04T10:10:06.111Z,22.7
2018-09-04T10:11:07.525Z,22.7
2018-09-04T10:12:08.823Z,22.7
2018-09-04T10:13:10.204Z,22.7
2018-09-04T10:14:11.585Z,22.7
2018-09-04T10:15:12.981Z,22.9
2018-09-04T10:16:14.369Z,23.1
2018-09-04T10:17:15.751Z,23.3
2018-09-04T10:18:17.130Z,23.5
2018-09-04T10:19:18.516Z,23.6
2018-09-04T10:20:19.897Z,23.8
2018-09-04T10:21:21.352Z,23.9
2018-09-04T10:22:22.643Z,24.1
2018-09-04T10:23:24.022Z,24.3
2018-09-04T10:24:25.407Z,24.4
2018-09-04T10:25:26.799Z,24.6
2018-09-04T10:26:28.200Z,24.6
2018-09-04T10:27:29.574Z,24.7
2018-09-04T10:28:30.959Z,24.8
2018-09-04T10:29:32.344Z,24.9
2018-09-04T10:30:33.745Z,24.8
2018-09-04T10:31:35.131Z,24.8
2018-09-04T10:32:36.514Z,24.8
2018-09-04T10:33:37.896Z,24.9
2018-09-04T10:34:39.285Z,25.1
2018-09-04T10:35:40.679Z,25.0
2018-09-04T10:36:42.059Z,25.0
2018-09-04T10:37:43.460Z,25.0
2018-09-04T10:38:44.846Z,25.0
2018-09-04T10:39:46.226Z,25.1
2018-09-04T10:40:47.610Z,25.0
2018-09-04T10:41:48.996Z,25.3
2018-09-04T10:42:50.418Z,25.2
2018-09-04T10:43:51.807Z,25.2
2018-09-04T10:44:53.223Z,25.1
2018-09-04T10:45:54.609Z,25.0
2018-09-04T10:46:56.000Z,24.8
2018-09-04T10:47:57.395Z,24.7
2018-09-04T10:48:58.785Z,24.5
2018-09-04T10:50:00.170Z,24.2
2018-09-04T10:51:01.552Z,24.2
2018-09-04T10:52:02.935Z,24.2
2018-09-04T10:53:04.315Z,24.0
2018-09-04T10:54:05.706Z,23.9
2018-09-04T10:55:07.086Z,24.0
2018-09-04T10:56:08.469Z,23.9
2018-09-04T10:57:09.846Z,23.8
2018-09-04T10:58:11.226Z,23.8
2018-09-04T10:59:12.620Z,23.8
2018-09-04T11:00:13.995Z,23.9
2018-09-04T11:01:15.371Z,24.0
2018-09-04T11:02:16.805Z,24.1
2018-09-04T11:03:18.104Z,24.0
2018-09-04T11:04:19.490Z,24.1
2018-09-04T11:05:20.932Z,24.1
2018-09-04T11:06:22.325Z,24.1
2018-09-04T11:07:23.705Z,24.1
2018-09-04T11:08:25.079Z,24.1
2018-09-04T11:09:26.545Z,24.1
2018-09-04T11:10:27.806Z,24.1
2018-09-04T11:11:29.186Z,24.0
2018-09-04T11:12:30.587Z,23.9
2018-09-04T11:13:31.977Z,23.9
2018-09-04T11:14:33.366Z,23.8
2018-09-04T11:15:34.736Z,23.8
2018-09-04T11:16:36.130Z,23.7
2018-09-04T11:17:37.516Z,23.6
2018-09-04T11:18:38.900Z,23.7
2018-09-04T11:19:40.280Z,23.7
2018-09-04T11:20:41.667Z,23.8
2018-09-04T11:21:43.046Z,23.8
2018-09-04T11:22:44.431Z,23.8
2018-09-04T11:23:45.883Z,23.9
2018-09-04T11:24:47.199Z,23.9
2018-09-04T11:25:48.572Z,24.0
2018-09-04T11:26:49.956Z,24.0
2018-09-04T11:27:51.336Z,24.0
2018-09-04T11:28:52.724Z,24.1
2018-09-04T11:29:54.100Z,24.1
2018-09-04T11:30:55.486Z,24.2
2018-09-04T11:31:56.885Z,24.3
2018-09-04T11:32:58.267Z,24.3
2018-09-04T11:33:59.650Z,24.5
2018-09-04T11:35:01.031Z,24.6
2018-09-04T11:36:02.436Z,24.6
2018-09-04T11:37:03.823Z,24.8
2018-09-04T11:38:05.207Z,24.8
2018-09-04T11:39:06.601Z,24.9
2018-09-04T11:40:07.991Z,25.0
2018-09-04T11:41:09.370Z,25.0
2018-09-04T11:42:10.758Z,25.1
2018-09-04T11:43:12.131Z,25.1
2018-09-04T11:44:13.523Z,25.2
2018-09-04T11:45:14.921Z,25.0
2018-09-04T11:46:16.301Z,24.9
2018-09-04T11:47:17.677Z,25.0
2018-09-04T11:48:19.070Z,25.1
2018-09-04T11:49:20.457Z,25.0
2018-09-04T11:50:21.851Z,25.2
2018-09-04T11:51:23.242Z,25.3
2018-09-04T11:52:24.653Z,25.4
2018-09-04T11:53:25.968Z,25.3
2018-09-04T11:54:27.353Z,25.4
2018-09-04T11:55:28.750Z,25.5
2018-09-04T11:56:30.130Z,25.6
2018-09-04T11:57:31.520Z,25.6
2018-09-04T11:58:32.896Z,25.5
2018-09-04T11:59:34.305Z,25.4
2018-09-04T12:00:35.671Z,25.4
2018-09-04T12:01:37.067Z,25.5
2018-09-04T12:02:38.448Z,25.7
2018-09-04T12:03:39.835Z,25.8
2018-09-04T12:04:41.230Z,25.9
2018-09-04T12:05:42.658Z,25.9
2018-09-04T12:06:44.058Z,25.9
2018-09-04T12:07:45.332Z,25.9
2018-09-04T12:08:46.713Z,25.9
2018-09-04T12:09:48.110Z,25.9
2018-09-04T12:10:49.486Z,26.0
2018-09-04T12:11:50.872Z,26.2
2018-09-04T12:12:52.311Z,26.2
2018-09-04T12:13:53.640Z,26.2
2018-09-04T12:14:55.028Z,26.2
2018-09-04T12:15:56.416Z,26.2
2018-09-04T12:16:57.811Z,26.3
2018-09-04T12:17:59.195Z,26.3
2018-09-04T12:19:00.577Z,26.4
2018-09-04T12:20:01.960Z,26.5
2018-09-04T12:21:03.507Z,26.7
2018-09-04T12:22:04.692Z,26.9
2018-09-04T12:23:06.093Z,26.9
2018-09-04T12:24:07.483Z,27.1
2018-09-04T12:25:08.857Z,27.1
2018-09-04T12:26:10.254Z,27.1
2018-09-04T12:27:11.652Z,26.9
2018-09-04T12:28:12.986Z,26.9
2018-09-04T12:29:14.371Z,26.8
2018-09-04T12:30:15.762Z,26.7
2018-09-04T12:31:17.151Z,26.5
2018-09-04T12:32:18.533Z,26.5
2018-09-04T12:33:19.967Z,26.4
2018-09-04T12:34:21.358Z,26.2
2018-09-04T12:35:22.737Z,26.2
2018-09-04T12:36:24.163Z,26.1
2018-09-04T12:37:25.478Z,26.3
2018-09-04T12:38:26.857Z,26.3
2018-09-04T12:39:28.252Z,26.4
2018-09-04T12:40:29.632Z,26.5
2018-09-04T12:41:31.013Z,26.6
2018-09-04T12:42:32.482Z,26.7
2018-09-04T12:43:33.804Z,26.7
2018-09-04T12:44:35.203Z,26.8
2018-09-04T12:45:36.592Z,26.8
2018-09-04T12:46:37.984Z,26.8
2018-09-04T12:47:39.377Z,26.5
2018-09-04T12:48:40.816Z,26.4
2018-09-04T12:49:42.153Z,26.5
2018-09-04T12:50:43.532Z,26.6
2018-09-04T12:51:44.933Z,26.6
2018-09-04T12:52:46.317Z,26.7
2018-09-04T12:53:47.709Z,26.7
2018-09-04T12:54:49.166Z,26.6
2018-09-04T12:55:50.483Z,26.6
2018-09-04T12:56:51.872Z,26.7
2018-09-04T12:57:53.253Z,26.6
2018-09-04T12:58:54.647Z,26.6
2018-09-04T12:59:56.071Z,26.4
2018-09-04T13:00:57.381Z,26.3
2018-09-04T13:01:58.774Z,26.0
2018-09-04T13:03:00.163Z,26.0
2018-09-04T13:04:01.546Z,25.9
2018-09-04T13:05:02.938Z,26.0
2018-09-04T13:06:04.321Z,26.2
2018-09-04T13:07:05.727Z,26.1
2018-09-04T13:08:07.096Z,26.3
2018-09-04T13:09:08.549Z,26.4
2018-09-04T13:10:09.830Z,26.6
2018-09-04T13:11:11.243Z,26.6
2018-09-04T13:12:12.622Z,26.7
2018-09-04T13:13:14.018Z,26.8
2018-09-04T13:14:15.399Z,26.8
2018-09-04T13:15:16.788Z,27.0
2018-09-04T13:16:18.173Z,26.9
2018-09-04T13:17:19.557Z,27.1
2018-09-04T13:18:20.936Z,27.2
2018-09-04T13:19:22.334Z,27.3
2018-09-04T13:20:23.711Z,27.2
2018-09-04T13:21:25.102Z,27.2
2018-09-04T13:22:26.495Z,27.2
2018-09-04T13:23:27.896Z,27.1
2018-09-04T13:24:29.276Z,27.1
2018-09-04T13:25:30.663Z,27.1
2018-09-04T13:26:32.044Z,26.9
2018-09-04T13:27:33.433Z,27.0
2018-09-04T13:28:34.833Z,27.0
2018-09-04T13:29:36.243Z,27.1
2018-09-04T13:30:37.628Z,27.1
2018-09-04T13:31:39.004Z,27.1
2018-09-04T13:32:40.392Z,26.8
2018-09-04T13:33:41.771Z,26.7
2018-09-04T13:34:43.166Z,26.5
2018-09-04T13:35:44.552Z,26.5
2018-09-04T13:36:45.934Z,26.4